createdAt,value
2022-10-15T00:00:34.811Z,19.63
2022-10-15T00:01:34.924Z,19.73
2022-10-15T00:02:34.811Z,19.71
2022-10-15T00:03:34.807Z,19.69
2022-10-15T00:04:34.804Z,19.66
2022-10-15T00:05:34.797Z,19.69
2022-10-15T00:06:34.810Z,19.59
2022-10-15T00:07:34.804Z,19.69
2022-10-15T00:08:34.800Z,19.65
2022-10-15T00:09:34.802Z,19.66
2022-10-15T00:10:34.794Z,19.63
2022-10-15T00:11:34.792Z,19.63
2022-10-15T00:12:34.782Z,19.71
2022-10-15T00:13:34.794Z,19.66
2022-10-15T00:14:34.777Z,19.69
2022-10-15T00:15:34.806Z,19.63
2022-10-15T00:16:34.779Z,19.63
2022-10-15T00:17:34.795Z,19.74
2022-10-15T00:18:34.771Z,19.66
2022-10-15T00:19:34.776Z,19.63
2022-10-15T00:20:34.773Z,19.74
2022-10-15T00:21:34.775Z,19.66
2022-10-15T00:22:34.769Z,19.65
2022-10-15T00:23:34.774Z,19.65
2022-10-15T00:24:34.755Z,19.68
2022-10-15T00:25:34.756Z,19.73
2022-10-15T00:26:34.767Z,19.68
2022-10-15T00:27:34.756Z,19.65
2022-10-15T00:28:34.799Z,19.66
2022-10-15T00:29:34.754Z,19.71
2022-10-15T00:30:34.742Z,19.69
2022-10-15T00:31:34.768Z,19.66
2022-10-15T00:32:34.740Z,19.68
2022-10-15T00:33:34.747Z,19.68
2022-10-15T00:34:34.748Z,19.63
2022-10-15T00:35:34.734Z,19.66
2022-10-15T00:36:34.741Z,19.65
2022-10-15T00:37:34.747Z,19.69
2022-10-15T00:38:34.739Z,19.66
2022-10-15T00:39:34.744Z,19.65
2022-10-15T00:40:34.726Z,19.76
2022-10-15T00:41:34.728Z,19.68
2022-10-15T00:42:34.716Z,19.63
2022-10-15T00:43:34.718Z,19.62
2022-10-15T00:44:34.726Z,19.71
2022-10-15T00:45:34.710Z,19.68
2022-10-15T00:46:34.726Z,19.68
2022-10-15T00:47:34.728Z,19.68
2022-10-15T00:48:34.707Z,19.69
2022-10-15T00:49:34.711Z,19.65
2022-10-15T00:50:34.721Z,19.66
2022-10-15T00:51:34.706Z,19.68
2022-10-15T00:52:34.698Z,19.65
2022-10-15T00:53:34.703Z,19.68
2022-10-15T00:54:34.702Z,19.65
2022-10-15T00:55:34.700Z,19.63
2022-10-15T00:56:34.694Z,19.68
2022-10-15T00:57:34.697Z,19.61
2022-10-15T00:58:34.690Z,19.71
2022-10-15T00:59:34.711Z,19.71
2022-10-15T01:00:34.694Z,19.69
2022-10-15T01:01:34.722Z,19.73
2022-10-15T01:02:34.758Z,19.63
2022-10-15T01:03:34.704Z,19.71
2022-10-15T01:04:34.676Z,19.73
2022-10-15T01:05:34.675Z,19.68
2022-10-15T01:06:34.677Z,19.73
2022-10-15T01:07:34.679Z,19.71
2022-10-15T01:08:34.663Z,19.76
2022-10-15T01:09:34.671Z,19.68
2022-10-15T01:10:34.660Z,19.68
2022-10-15T01:11:34.663Z,19.69
2022-10-15T01:12:34.707Z,19.68
2022-10-15T01:13:34.667Z,19.68
2022-10-15T01:14:34.653Z,19.68
2022-10-15T01:15:34.648Z,19.66
2022-10-15T01:16:34.648Z,19.66
2022-10-15T01:17:34.648Z,19.68
2022-10-15T01:18:34.654Z,19.63
2022-10-15T01:19:34.660Z,19.71
2022-10-15T01:20:34.639Z,19.63
2022-10-15T01:21:34.640Z,19.69
2022-10-15T01:22:34.638Z,19.63
2022-10-15T01:23:34.642Z,19.59
2022-10-15T01:24:34.631Z,19.69
2022-10-15T01:25:34.633Z,19.59
2022-10-15T01:26:34.631Z,19.69
2022-10-15T01:27:34.702Z,19.61
2022-10-15T01:28:34.692Z,19.66
2022-10-15T01:29:34.641Z,19.59
2022-10-15T01:30:34.632Z,19.69
2022-10-15T01:31:34.617Z,19.71
2022-10-15T01:32:34.631Z,19.71
2022-10-15T01:33:34.615Z,19.58
2022-10-15T01:34:34.610Z,19.73
2022-10-15T01:35:34.648Z,19.69
2022-10-15T01:36:34.601Z,19.56
2022-10-15T01:37:34.604Z,19.65
2022-10-15T01:38:34.599Z,19.58
2022-10-15T01:39:34.605Z,19.65
2022-10-15T01:40:34.597Z,19.66
2022-10-15T01:41:34.602Z,19.56
2022-10-15T01:42:34.589Z,19.62
2022-10-15T01:43:34.605Z,19.65
2022-10-15T01:44:34.583Z,19.63
2022-10-15T01:45:34.585Z,19.68
2022-10-15T01:46:34.590Z,19.69
2022-10-15T01:47:34.583Z,19.59
2022-10-15T01:48:34.582Z,19.66
2022-10-15T01:49:34.578Z,19.58
2022-10-15T01:50:34.575Z,19.65
2022-10-15T01:51:34.592Z,19.54
2022-10-15T01:52:34.583Z,19.68
2022-10-15T01:53:34.572Z,19.62
2022-10-15T01:54:34.567Z,19.65
2022-10-15T01:55:34.660Z,19.65
2022-10-15T01:56:34.617Z,19.68
2022-10-15T01:57:34.565Z,19.69
2022-10-15T01:58:34.564Z,19.66
2022-10-15T01:59:34.554Z,19.66
2022-10-15T02:00:34.576Z,19.56
2022-10-15T02:01:34.650Z,19.66
2022-10-15T02:02:34.546Z,19.58
2022-10-15T02:03:34.544Z,19.66
2022-10-15T02:04:34.551Z,19.59
2022-10-15T02:05:34.540Z,19.59
2022-10-15T02:06:34.544Z,19.58
2022-10-15T02:07:34.564Z,19.61
2022-10-15T02:08:34.531Z,19.69
2022-10-15T02:09:34.543Z,19.61
2022-10-15T02:10:34.560Z,19.66
2022-10-15T02:11:34.529Z,19.58
2022-10-15T02:12:34.534Z,19.68
2022-10-15T02:13:34.518Z,19.68
2022-10-15T02:14:34.524Z,19.65
2022-10-15T02:15:34.524Z,19.62
2022-10-15T02:16:34.523Z,19.61
2022-10-15T02:17:34.516Z,19.59
2022-10-15T02:18:34.528Z,19.62
2022-10-15T02:19:34.514Z,19.63
2022-10-15T02:20:34.523Z,19.66
2022-10-15T02:21:34.515Z,19.65
2022-10-15T02:22:34.513Z,19.55
2022-10-15T02:23:34.529Z,19.59
2022-10-15T02:24:34.505Z,19.55
2022-10-15T02:25:34.493Z,19.56
2022-10-15T02:26:34.495Z,19.63
2022-10-15T02:27:34.508Z,19.62
2022-10-15T02:28:34.563Z,19.63
2022-10-15T02:29:34.485Z,19.63
2022-10-15T02:30:34.503Z,19.61
2022-10-15T02:31:34.484Z,19.62
2022-10-15T02:32:34.493Z,19.59
2022-10-15T02:33:34.479Z,19.56
2022-10-15T02:34:34.491Z,19.59
2022-10-15T02:35:34.495Z,19.58
2022-10-15T02:36:34.468Z,19.58
2022-10-15T02:37:34.476Z,19.59
2022-10-15T02:38:34.467Z,19.59
2022-10-15T02:39:34.623Z,19.59
2022-10-15T02:40:34.473Z,19.59
2022-10-15T02:41:34.458Z,19.59
2022-10-15T02:42:34.458Z,19.62
2022-10-15T02:43:34.486Z,19.59
2022-10-15T02:44:34.466Z,19.56
2022-10-15T02:45:34.465Z,19.59
2022-10-15T02:46:34.455Z,19.62
2022-10-15T02:47:34.454Z,19.59
2022-10-15T02:48:34.445Z,19.58
2022-10-15T02:49:34.440Z,19.56
2022-10-15T02:50:34.450Z,19.56
2022-10-15T02:51:34.437Z,19.56
2022-10-15T02:52:34.449Z,19.61
2022-10-15T02:53:34.443Z,19.56
2022-10-15T02:54:34.444Z,19.56
2022-10-15T02:55:34.452Z,19.56
2022-10-15T02:56:34.447Z,19.59
2022-10-15T02:57:34.422Z,19.63
2022-10-15T02:58:34.432Z,19.59
2022-10-15T02:59:34.428Z,19.59
2022-10-15T03:00:34.419Z,19.56
2022-10-15T03:01:34.419Z,19.59
2022-10-15T03:02:34.415Z,19.62
2022-10-15T03:03:34.418Z,19.61
2022-10-15T03:04:34.414Z,19.55
2022-10-15T03:05:34.418Z,19.58
2022-10-15T03:06:34.408Z,19.54
2022-10-15T03:07:34.421Z,19.62
2022-10-15T03:08:34.406Z,19.55
2022-10-15T03:09:34.404Z,19.54
2022-10-15T03:10:34.401Z,19.56
2022-10-15T03:11:34.473Z,19.58
2022-10-15T03:12:34.391Z,19.55
2022-10-15T03:13:34.396Z,19.62
2022-10-15T03:14:34.405Z,19.56
2022-10-15T03:15:34.392Z,19.56
2022-10-15T03:16:34.392Z,19.54
2022-10-15T03:17:34.385Z,19.55
2022-10-15T03:18:36.814Z,19.58
2022-10-15T03:19:34.383Z,19.56
2022-10-15T03:20:34.374Z,19.59
2022-10-15T03:21:34.380Z,19.56
2022-10-15T03:22:34.380Z,19.59
2022-10-15T03:23:34.389Z,19.55
2022-10-15T03:24:34.390Z,19.55
2022-10-15T03:25:34.366Z,19.51
2022-10-15T03:26:34.361Z,19.55
2022-10-15T03:27:34.379Z,19.55
2022-10-15T03:28:34.440Z,19.51
2022-10-15T03:29:34.356Z,19.56
2022-10-15T03:30:34.357Z,19.56
2022-10-15T03:31:34.352Z,19.51
2022-10-15T03:32:36.243Z,19.56
2022-10-15T03:33:34.359Z,19.54
2022-10-15T03:34:34.359Z,19.55
2022-10-15T03:35:34.336Z,19.55
2022-10-15T03:36:34.347Z,19.56
2022-10-15T03:37:34.330Z,19.50
2022-10-15T03:38:34.338Z,19.58
2022-10-15T03:39:34.336Z,19.48
2022-10-15T03:40:34.335Z,19.51
2022-10-15T03:41:34.376Z,19.51
2022-10-15T03:42:34.328Z,19.54
2022-10-15T03:43:37.452Z,19.55
2022-10-15T03:44:34.329Z,19.54
2022-10-15T03:45:34.317Z,19.50
2022-10-15T03:46:34.336Z,19.51
2022-10-15T03:47:34.308Z,19.51
2022-10-15T03:48:34.316Z,19.50
2022-10-15T03:49:34.307Z,19.55
2022-10-15T03:50:34.390Z,19.55
2022-10-15T03:51:34.299Z,19.47
2022-10-15T03:52:34.301Z,19.55
2022-10-15T03:53:34.300Z,19.51
2022-10-15T03:54:34.295Z,19.55
2022-10-15T03:55:34.299Z,19.55
2022-10-15T03:56:34.298Z,19.55
2022-10-15T03:57:34.291Z,19.51
2022-10-15T03:58:34.385Z,19.50
2022-10-15T03:59:34.431Z,19.50
2022-10-15T04:00:34.294Z,19.55
2022-10-15T04:01:34.311Z,19.56
2022-10-15T04:02:34.293Z,19.54
2022-10-15T04:03:34.281Z,19.47
2022-10-15T04:04:34.269Z,19.55
2022-10-15T04:05:34.282Z,19.50
2022-10-15T04:06:34.266Z,19.55
2022-10-15T04:07:34.269Z,19.58
2022-10-15T04:08:34.272Z,19.50
2022-10-15T04:09:34.266Z,19.44
2022-10-15T04:10:34.259Z,19.41
2022-10-15T04:11:34.269Z,19.58
2022-10-15T04:12:34.266Z,19.48
2022-10-15T04:13:34.267Z,19.54
2022-10-15T04:14:34.307Z,19.54
2022-10-15T04:15:34.322Z,19.55
2022-10-15T04:16:34.247Z,19.46
2022-10-15T04:17:34.251Z,19.40
2022-10-15T04:18:34.244Z,19.56
2022-10-15T04:19:34.248Z,19.47
2022-10-15T04:20:34.246Z,19.40
2022-10-15T04:21:34.238Z,19.47
2022-10-15T04:22:34.236Z,19.46
2022-10-15T04:23:34.239Z,19.41
2022-10-15T04:24:34.229Z,19.46
2022-10-15T04:25:34.230Z,19.51
2022-10-15T04:26:34.226Z,19.43
2022-10-15T04:27:34.225Z,19.44
2022-10-15T04:28:34.260Z,19.50
2022-10-15T04:29:34.214Z,19.50
2022-10-15T04:30:34.224Z,19.47
2022-10-15T04:31:34.240Z,19.46
2022-10-15T04:32:34.207Z,19.41
2022-10-15T04:33:34.211Z,19.56
2022-10-15T04:34:34.202Z,19.44
2022-10-15T04:35:34.206Z,19.50
2022-10-15T04:36:34.209Z,19.48
2022-10-15T04:37:34.197Z,19.43
2022-10-15T04:38:34.195Z,19.46
2022-10-15T04:39:34.193Z,19.46
2022-10-15T04:40:34.200Z,19.55
2022-10-15T04:41:34.198Z,19.44
2022-10-15T04:42:34.185Z,19.44
2022-10-15T04:43:34.192Z,19.46
2022-10-15T04:44:34.204Z,19.41
2022-10-15T04:45:34.190Z,19.48
2022-10-15T04:46:34.188Z,19.41
2022-10-15T04:47:34.191Z,19.43
2022-10-15T04:48:34.451Z,19.41
2022-10-15T04:49:34.169Z,19.54
2022-10-15T04:50:34.172Z,19.50
2022-10-15T04:51:34.178Z,19.44
2022-10-15T04:52:34.175Z,19.41
2022-10-15T04:53:34.164Z,19.56
2022-10-15T04:54:34.169Z,19.47
2022-10-15T04:55:34.156Z,19.40
2022-10-15T04:56:34.153Z,19.46
2022-10-15T04:57:34.157Z,19.51
2022-10-15T04:58:34.161Z,19.50
2022-10-15T04:59:34.155Z,19.51
2022-10-15T05:00:34.143Z,19.47
2022-10-15T05:01:34.144Z,19.41
2022-10-15T05:02:34.227Z,19.47
2022-10-15T05:03:34.947Z,19.48
2022-10-15T05:04:34.135Z,19.48
2022-10-15T05:05:34.136Z,19.47
2022-10-15T05:06:34.129Z,19.50
2022-10-15T05:07:34.129Z,19.47
2022-10-15T05:08:34.124Z,19.47
2022-10-15T05:09:37.057Z,19.47
2022-10-15T05:10:34.123Z,19.47
2022-10-15T05:11:34.135Z,19.44
2022-10-15T05:12:34.154Z,19.44
2022-10-15T05:13:34.121Z,19.51
2022-10-15T05:14:34.118Z,19.48
2022-10-15T05:15:34.120Z,19.48
2022-10-15T05:16:34.114Z,19.43
2022-10-15T05:17:34.104Z,19.48
2022-10-15T05:18:34.114Z,19.55
2022-10-15T05:19:34.126Z,19.44
2022-10-15T05:20:34.101Z,19.43
2022-10-15T05:21:34.112Z,19.44
2022-10-15T05:22:34.095Z,19.51
2022-10-15T05:23:34.093Z,19.44
2022-10-15T05:24:34.088Z,19.48
2022-10-15T05:25:34.092Z,19.50
2022-10-15T05:26:34.099Z,19.47
2022-10-15T05:27:34.090Z,19.48
2022-10-15T05:28:34.160Z,19.47
2022-10-15T05:29:34.086Z,19.46
2022-10-15T05:30:34.083Z,19.46
2022-10-15T05:31:34.074Z,19.48
2022-10-15T05:32:34.078Z,19.51
2022-10-15T05:33:34.079Z,19.48
2022-10-15T05:34:34.072Z,19.51
2022-10-15T05:35:34.079Z,19.47
2022-10-15T05:36:34.064Z,19.48
2022-10-15T05:37:34.067Z,19.47
2022-10-15T05:38:34.056Z,19.44
2022-10-15T05:39:34.059Z,19.41
2022-10-15T05:40:34.054Z,19.46
2022-10-15T05:41:34.054Z,19.50
2022-10-15T05:42:34.049Z,19.46
2022-10-15T05:43:36.169Z,19.47
2022-10-15T05:44:34.060Z,19.47
2022-10-15T05:45:34.048Z,19.44
2022-10-15T05:46:34.037Z,19.47
2022-10-15T05:47:34.037Z,19.44
2022-10-15T05:48:34.045Z,19.47
2022-10-15T05:49:34.040Z,19.40
2022-10-15T05:50:34.038Z,19.47
2022-10-15T05:51:34.046Z,19.50
2022-10-15T05:52:34.038Z,19.50
2022-10-15T05:53:34.031Z,19.40
2022-10-15T05:54:34.021Z,19.39
2022-10-15T05:55:34.027Z,19.40
2022-10-15T05:56:34.023Z,19.58
2022-10-15T05:57:34.010Z,19.43
2022-10-15T05:58:37.188Z,19.47
2022-10-15T05:59:34.011Z,19.51
2022-10-15T06:00:34.004Z,19.47
2022-10-15T06:01:34.073Z,19.39
2022-10-15T06:02:34.222Z,19.46
2022-10-15T06:03:34.005Z,19.44
2022-10-15T06:04:35.763Z,19.47
2022-10-15T06:05:33.993Z,19.46
2022-10-15T06:06:34.000Z,19.47
2022-10-15T06:07:34.024Z,19.50
2022-10-15T06:08:33.989Z,19.43
2022-10-15T06:09:33.986Z,19.47
2022-10-15T06:10:33.984Z,19.43
2022-10-15T06:11:34.006Z,19.47
2022-10-15T06:12:33.981Z,19.46
2022-10-15T06:13:33.977Z,19.44
2022-10-15T06:14:33.974Z,19.43
2022-10-15T06:15:33.982Z,19.40
2022-10-15T06:16:33.974Z,19.47
2022-10-15T06:17:33.977Z,19.40
2022-10-15T06:18:33.972Z,19.54
2022-10-15T06:19:33.961Z,19.46
2022-10-15T06:20:33.956Z,19.46
2022-10-15T06:21:33.957Z,19.47
2022-10-15T06:22:33.989Z,19.39
2022-10-15T06:23:33.971Z,19.40
2022-10-15T06:24:33.951Z,19.47
2022-10-15T06:25:33.953Z,19.39
2022-10-15T06:26:33.965Z,19.39
2022-10-15T06:27:33.945Z,19.39
2022-10-15T06:28:34.033Z,19.46
2022-10-15T06:29:33.940Z,19.36
2022-10-15T06:30:33.944Z,19.37
2022-10-15T06:31:33.942Z,19.44
2022-10-15T06:32:33.931Z,19.40
2022-10-15T06:33:33.929Z,19.47
2022-10-15T06:34:33.922Z,19.44
2022-10-15T06:35:33.932Z,19.40
2022-10-15T06:36:33.931Z,19.47
2022-10-15T06:37:33.930Z,19.47
2022-10-15T06:38:33.919Z,19.40
2022-10-15T06:39:33.944Z,19.43
2022-10-15T06:40:33.921Z,19.50
2022-10-15T06:41:33.911Z,19.47
2022-10-15T06:42:33.908Z,19.47
2022-10-15T06:43:35.246Z,19.39
2022-10-15T06:44:33.904Z,19.40
2022-10-15T06:45:33.904Z,19.39
2022-10-15T06:46:33.901Z,19.46
2022-10-15T06:47:33.902Z,19.43
2022-10-15T06:48:33.894Z,19.48
2022-10-15T06:49:33.892Z,19.46
2022-10-15T06:50:33.894Z,19.47
2022-10-15T06:51:33.897Z,19.47
2022-10-15T06:52:33.880Z,19.44
2022-10-15T06:53:33.889Z,19.43
2022-10-15T06:54:33.884Z,19.43
2022-10-15T06:55:33.899Z,19.46
2022-10-15T06:56:33.873Z,19.44
2022-10-15T06:57:33.875Z,19.39
2022-10-15T06:58:33.873Z,19.46
2022-10-15T06:59:34.844Z,19.40
2022-10-15T07:01:36.194Z,19.44
2022-10-15T07:02:33.866Z,19.37
2022-10-15T07:03:33.861Z,19.40
2022-10-15T07:04:33.856Z,19.46
2022-10-15T07:05:33.861Z,19.48
2022-10-15T07:06:33.852Z,19.44
2022-10-15T07:07:33.858Z,19.43
2022-10-15T07:08:33.852Z,19.40
2022-10-15T07:09:33.848Z,19.47
2022-10-15T07:10:33.846Z,19.46
2022-10-15T07:11:33.875Z,19.47
2022-10-15T07:12:33.851Z,19.46
2022-10-15T07:13:33.851Z,19.44
2022-10-15T07:14:34.886Z,19.44
2022-10-15T07:15:33.832Z,19.50
2022-10-15T07:16:33.826Z,19.50
2022-10-15T07:17:33.830Z,19.43
2022-10-15T07:18:33.831Z,19.44
2022-10-15T07:19:33.833Z,19.46
2022-10-15T07:20:33.832Z,19.47
2022-10-15T07:21:33.838Z,19.47
2022-10-15T07:22:33.811Z,19.37
2022-10-15T07:23:33.829Z,19.47
2022-10-15T07:24:33.809Z,19.40
2022-10-15T07:25:33.814Z,19.50
2022-10-15T07:26:33.814Z,19.41
2022-10-15T07:27:33.833Z,19.48
2022-10-15T07:28:33.862Z,19.47
2022-10-15T07:29:33.826Z,19.44
2022-10-15T07:30:33.803Z,19.51
2022-10-15T07:31:33.902Z,19.48
2022-10-15T07:32:33.788Z,19.44
2022-10-15T07:33:33.787Z,19.47
2022-10-15T07:34:33.790Z,19.51
2022-10-15T07:35:33.794Z,19.46
2022-10-15T07:36:33.795Z,19.48
2022-10-15T07:37:33.795Z,19.48
2022-10-15T07:38:33.789Z,19.51
2022-10-15T07:39:35.562Z,19.50
2022-10-15T07:40:33.781Z,19.43
2022-10-15T07:41:33.773Z,19.46
2022-10-15T07:42:33.770Z,19.48
2022-10-15T07:43:33.820Z,19.47
2022-10-15T07:44:33.766Z,19.44
2022-10-15T07:45:33.766Z,19.47
2022-10-15T07:46:33.764Z,19.47
2022-10-15T07:47:33.759Z,19.43
2022-10-15T07:48:33.754Z,19.44
2022-10-15T07:49:33.753Z,19.47
2022-10-15T07:50:35.603Z,19.43
2022-10-15T07:51:33.759Z,19.54
2022-10-15T07:52:33.762Z,19.54
2022-10-15T07:53:33.755Z,19.56
2022-10-15T07:54:33.751Z,19.58
2022-10-15T07:55:33.747Z,19.62
2022-10-15T07:56:33.736Z,19.62
2022-10-15T07:57:33.740Z,19.62
2022-10-15T07:58:33.740Z,19.66
2022-10-15T07:59:33.760Z,19.68
2022-10-15T08:01:33.734Z,19.62
2022-10-15T08:02:33.730Z,19.65
2022-10-15T08:03:33.733Z,19.74
2022-10-15T08:04:33.729Z,19.71
2022-10-15T08:05:33.725Z,19.69
2022-10-15T08:06:33.719Z,19.73
2022-10-15T08:07:33.727Z,19.71
2022-10-15T08:08:33.721Z,19.83
2022-10-15T08:09:33.785Z,19.86
2022-10-15T08:10:33.724Z,19.83
2022-10-15T08:11:33.709Z,19.83
2022-10-15T08:12:33.709Z,19.92
2022-10-15T08:13:33.705Z,19.96
2022-10-15T08:14:33.709Z,19.98
2022-10-15T08:15:33.742Z,20.01
2022-10-15T08:16:33.715Z,20.06
2022-10-15T08:17:33.746Z,20.11
2022-10-15T08:18:33.711Z,20.10
2022-10-15T08:19:33.698Z,20.10
2022-10-15T08:20:33.703Z,20.23
2022-10-15T08:21:33.700Z,20.16
2022-10-15T08:22:33.700Z,20.17
2022-10-15T08:23:33.695Z,20.17
2022-10-15T08:24:33.690Z,20.28
2022-10-15T08:25:33.691Z,20.29
2022-10-15T08:26:33.688Z,20.39
2022-10-15T08:27:33.687Z,20.32
2022-10-15T08:28:33.778Z,20.36
2022-10-15T08:29:33.699Z,20.38
2022-10-15T08:30:33.683Z,20.42
2022-10-15T08:31:33.706Z,20.43
2022-10-15T08:32:33.684Z,20.42
2022-10-15T08:33:33.683Z,20.48
2022-10-15T08:34:33.673Z,20.47
2022-10-15T08:35:33.681Z,20.41
2022-10-15T08:36:33.682Z,20.51
2022-10-15T08:37:33.676Z,20.52
2022-10-15T08:38:33.687Z,20.52
2022-10-15T08:39:33.676Z,20.55
2022-10-15T08:40:33.666Z,20.50
2022-10-15T08:41:33.673Z,20.50
2022-10-15T08:42:33.665Z,20.52
2022-10-15T08:43:33.668Z,20.50
2022-10-15T08:44:33.664Z,20.43
2022-10-15T08:45:33.667Z,20.57
2022-10-15T08:46:33.676Z,20.59
2022-10-15T08:47:33.680Z,20.61
2022-10-15T08:48:33.662Z,20.62
2022-10-15T08:49:33.674Z,20.57
2022-10-15T08:50:33.657Z,20.51
2022-10-15T08:51:33.662Z,20.55
2022-10-15T08:52:33.662Z,20.57
2022-10-15T08:53:33.682Z,20.52
2022-10-15T08:54:33.697Z,20.55
2022-10-15T08:55:33.686Z,20.62
2022-10-15T08:56:33.903Z,20.52
2022-10-15T08:57:33.650Z,20.47
2022-10-15T08:58:36.950Z,20.59
2022-10-15T08:59:33.653Z,20.55
2022-10-15T09:00:33.652Z,20.55
2022-10-15T09:01:33.663Z,20.59
2022-10-15T09:02:33.650Z,20.54
2022-10-15T09:03:33.655Z,20.62
2022-10-15T09:04:33.836Z,20.58
2022-10-15T09:05:33.643Z,20.59
2022-10-15T09:06:33.641Z,20.41
2022-10-15T09:07:33.635Z,20.52
2022-10-15T09:08:33.662Z,20.57
2022-10-15T09:09:33.682Z,20.58
2022-10-15T09:10:33.656Z,20.57
2022-10-15T09:11:33.631Z,20.61
2022-10-15T09:12:33.639Z,20.47
2022-10-15T09:13:33.706Z,20.52
2022-10-15T09:14:33.629Z,20.47
2022-10-15T09:15:33.631Z,20.47
2022-10-15T09:16:33.629Z,20.48
2022-10-15T09:17:33.632Z,20.43
2022-10-15T09:18:33.633Z,20.50
2022-10-15T09:19:33.648Z,20.42
2022-10-15T09:20:33.630Z,20.42
2022-10-15T09:21:33.625Z,20.57
2022-10-15T09:22:33.622Z,20.52
2022-10-15T09:23:33.622Z,20.51
2022-10-15T09:24:33.636Z,20.42
2022-10-15T09:25:33.611Z,20.48
2022-10-15T09:26:33.608Z,20.58
2022-10-15T09:27:33.613Z,20.51
2022-10-15T09:28:33.619Z,20.58
2022-10-15T09:29:33.613Z,20.54
2022-10-15T09:30:33.608Z,20.50
2022-10-15T09:31:33.612Z,20.48
2022-10-15T09:32:33.605Z,20.54
2022-10-15T09:33:33.599Z,20.52
2022-10-15T09:34:33.599Z,20.52
2022-10-15T09:35:33.623Z,20.43
2022-10-15T09:36:33.604Z,20.55
2022-10-15T09:37:33.604Z,20.51
2022-10-15T09:38:33.599Z,20.47
2022-10-15T09:39:33.608Z,20.52
2022-10-15T09:40:33.593Z,20.47
2022-10-15T09:41:33.591Z,20.43
2022-10-15T09:42:33.666Z,20.50
2022-10-15T09:43:33.603Z,20.51
2022-10-15T09:44:33.588Z,20.51
2022-10-15T09:45:33.589Z,20.42
2022-10-15T09:46:33.593Z,20.50
2022-10-15T09:47:33.588Z,20.42
2022-10-15T09:48:33.581Z,20.41
2022-10-15T09:49:36.389Z,20.42
2022-10-15T09:50:33.579Z,20.47
2022-10-15T09:51:33.629Z,20.47
2022-10-15T09:52:33.630Z,20.43
2022-10-15T09:53:33.577Z,20.50
2022-10-15T09:54:33.575Z,20.48
2022-10-15T09:55:33.581Z,20.43
2022-10-15T09:56:33.572Z,20.42
2022-10-15T09:57:33.573Z,20.36
2022-10-15T09:58:33.579Z,20.41
2022-10-15T09:59:33.789Z,20.39
2022-10-15T10:00:33.574Z,20.39
2022-10-15T10:01:33.574Z,20.42
2022-10-15T10:02:33.606Z,20.36
2022-10-15T10:03:33.566Z,20.48
2022-10-15T10:04:33.573Z,20.41
2022-10-15T10:05:33.560Z,20.41
2022-10-15T10:06:33.554Z,20.41
2022-10-15T10:07:33.571Z,20.47
2022-10-15T10:08:33.550Z,20.41
2022-10-15T10:09:33.552Z,20.36
2022-10-15T10:10:33.551Z,20.42
2022-10-15T10:11:33.556Z,20.39
2022-10-15T10:12:33.543Z,20.39
2022-10-15T10:13:33.553Z,20.47
2022-10-15T10:14:33.557Z,20.42
2022-10-15T10:15:33.548Z,20.42
2022-10-15T10:16:33.537Z,20.42
2022-10-15T10:17:33.538Z,20.33
2022-10-15T10:18:33.545Z,20.36
2022-10-15T10:19:33.546Z,20.38
2022-10-15T10:20:33.544Z,20.38
2022-10-15T10:21:33.548Z,20.38
2022-10-15T10:22:33.530Z,20.35
2022-10-15T10:23:33.552Z,20.41
2022-10-15T10:24:33.534Z,20.39
2022-10-15T10:25:33.528Z,20.32
2022-10-15T10:26:33.535Z,20.32
2022-10-15T10:27:33.535Z,20.32
2022-10-15T10:28:33.563Z,20.36
2022-10-15T10:29:34.718Z,20.36
2022-10-15T10:30:33.520Z,20.38
2022-10-15T10:31:33.525Z,20.35
2022-10-15T10:32:33.529Z,20.39
2022-10-15T10:33:33.512Z,20.38
2022-10-15T10:34:33.520Z,20.38
2022-10-15T10:35:33.512Z,20.36
2022-10-15T10:36:33.507Z,20.36
2022-10-15T10:37:33.513Z,20.36
2022-10-15T10:38:33.518Z,20.38
2022-10-15T10:39:33.529Z,20.36
2022-10-15T10:40:33.514Z,20.35
2022-10-15T10:41:33.504Z,20.42
2022-10-15T10:42:33.509Z,20.35
2022-10-15T10:43:38.304Z,20.35
2022-10-15T10:44:33.498Z,20.35
2022-10-15T10:45:33.504Z,20.38
2022-10-15T10:46:33.500Z,20.35
2022-10-15T10:47:33.499Z,20.38
2022-10-15T10:48:33.490Z,20.39
2022-10-15T10:49:33.496Z,20.39
2022-10-15T10:50:33.498Z,20.42
2022-10-15T10:51:33.494Z,20.42
2022-10-15T10:52:33.496Z,20.39
2022-10-15T10:53:33.492Z,20.33
2022-10-15T10:54:33.567Z,20.38
2022-10-15T10:55:33.506Z,20.39
2022-10-15T10:56:33.483Z,20.38
2022-10-15T10:57:33.477Z,20.33
2022-10-15T10:58:33.487Z,20.35
2022-10-15T10:59:33.475Z,20.42
2022-10-15T11:00:33.538Z,20.33
2022-10-15T11:01:33.474Z,20.36
2022-10-15T11:02:33.480Z,20.41
2022-10-15T11:03:33.468Z,20.36
2022-10-15T11:04:33.482Z,20.36
2022-10-15T11:05:33.471Z,20.35
2022-10-15T11:06:33.470Z,20.36
2022-10-15T11:07:33.470Z,20.33
2022-10-15T11:08:33.465Z,20.42
2022-10-15T11:09:33.460Z,20.36
2022-10-15T11:10:33.485Z,20.35
2022-10-15T11:11:33.496Z,20.32
2022-10-15T11:12:33.462Z,20.38
2022-10-15T11:13:33.469Z,20.36
2022-10-15T11:14:33.465Z,20.38
2022-10-15T11:15:33.472Z,20.39
2022-10-15T11:16:33.469Z,20.33
2022-10-15T11:17:33.460Z,20.35
2022-10-15T11:18:33.447Z,20.39
2022-10-15T11:20:49.725Z,20.38
2022-10-15T11:21:33.444Z,20.35
2022-10-15T11:22:33.453Z,20.43
2022-10-15T11:23:33.444Z,20.36
2022-10-15T11:24:42.646Z,20.38
2022-10-15T11:25:33.445Z,20.36
2022-10-15T11:26:41.485Z,20.39
2022-10-15T11:27:33.452Z,20.43
2022-10-15T11:28:33.497Z,20.38
2022-10-15T11:29:33.439Z,20.35
2022-10-15T11:30:33.434Z,20.41
2022-10-15T11:31:40.438Z,20.41
2022-10-15T11:34:10.952Z,20.35
2022-10-15T11:34:54.919Z,20.32
2022-10-15T11:35:54.987Z,20.41
2022-10-15T11:36:54.923Z,20.38
2022-10-15T11:37:54.913Z,20.38
2022-10-15T11:38:54.916Z,20.41
2022-10-15T11:39:54.923Z,20.33
2022-10-15T11:40:54.907Z,20.36
2022-10-15T11:41:54.901Z,20.36
2022-10-15T11:42:54.924Z,20.35
2022-10-15T11:43:54.908Z,20.36
2022-10-15T11:44:54.904Z,20.33
2022-10-15T11:45:54.908Z,20.35
2022-10-15T11:46:54.895Z,20.33
2022-10-15T11:47:54.897Z,20.38
2022-10-15T11:48:54.898Z,20.35
2022-10-15T11:49:54.894Z,20.38
2022-10-15T11:50:54.890Z,20.35
2022-10-15T11:51:54.900Z,20.39
2022-10-15T11:52:54.890Z,20.36
2022-10-15T11:53:54.894Z,20.39
2022-10-15T11:54:54.890Z,20.41
2022-10-15T11:55:54.880Z,20.42
2022-10-15T11:56:54.887Z,20.32
2022-10-15T11:57:54.887Z,20.35
2022-10-15T11:58:54.961Z,20.39
2022-10-15T11:59:54.878Z,20.38
2022-10-15T12:00:54.884Z,20.38
2022-10-15T12:01:54.893Z,20.36
2022-10-15T12:02:54.943Z,20.31
2022-10-15T12:03:54.926Z,20.38
2022-10-15T12:04:54.876Z,20.36
2022-10-15T12:05:54.871Z,20.38
2022-10-15T12:06:54.875Z,20.36
2022-10-15T12:07:55.002Z,20.35
2022-10-15T12:08:54.860Z,20.33
2022-10-15T12:09:54.971Z,20.41
2022-10-15T12:10:54.867Z,20.36
2022-10-15T12:11:54.867Z,20.42
2022-10-15T12:12:54.860Z,20.41
2022-10-15T12:13:54.862Z,20.38
2022-10-15T12:14:54.887Z,20.36
2022-10-15T12:15:54.863Z,20.36
2022-10-15T12:16:54.855Z,20.35
2022-10-15T12:17:54.853Z,20.38
2022-10-15T12:18:54.858Z,20.38
2022-10-15T12:19:54.855Z,20.38
2022-10-15T12:20:54.845Z,20.35
2022-10-15T12:21:54.853Z,20.38
2022-10-15T12:22:54.845Z,20.39
2022-10-15T12:23:54.842Z,20.35
2022-10-15T12:24:54.842Z,20.41
2022-10-15T12:25:54.846Z,20.38
2022-10-15T12:26:54.844Z,20.41
2022-10-15T12:27:54.845Z,20.33
2022-10-15T12:28:55.015Z,20.39
2022-10-15T12:29:54.834Z,20.29
2022-10-15T12:30:54.844Z,20.36
2022-10-15T12:31:54.837Z,20.39
2022-10-15T12:32:54.836Z,20.41
2022-10-15T12:33:54.843Z,20.42
2022-10-15T12:34:54.829Z,20.32
2022-10-15T12:35:54.820Z,20.32
2022-10-15T12:36:54.818Z,20.36
2022-10-15T12:37:54.820Z,20.43
2022-10-15T12:38:54.822Z,20.41
2022-10-15T12:39:54.827Z,20.38
2022-10-15T12:40:54.820Z,20.36
2022-10-15T12:41:54.820Z,20.39
2022-10-15T12:42:54.811Z,20.39
2022-10-15T12:43:54.822Z,20.35
2022-10-15T12:44:54.810Z,20.42
2022-10-15T12:45:54.832Z,20.42
2022-10-15T12:46:54.832Z,20.38
2022-10-15T12:47:54.799Z,20.43
2022-10-15T12:48:54.804Z,20.39
2022-10-15T12:49:54.824Z,20.42
2022-10-15T12:50:54.804Z,20.48
2022-10-15T12:51:56.305Z,20.42
2022-10-15T12:52:54.800Z,20.42
2022-10-15T12:53:54.799Z,20.43
2022-10-15T12:54:57.825Z,20.42
2022-10-15T12:55:54.803Z,20.43
2022-10-15T12:56:54.811Z,20.41